createdAt,value
2019-03-02T00:00:03.523Z,74.81
2019-03-02T00:00:43.173Z,74.9
2019-03-02T00:01:23.808Z,74.81
2019-03-02T00:02:04.403Z,75.48
2019-03-02T00:02:45.006Z,75.38
2019-03-02T00:03:25.598Z,75
2019-03-02T00:04:09.447Z,75.1
2019-03-02T00:04:49.235Z,75.42
2019-03-02T00:05:27.366Z,75.29
2019-03-02T00:06:07.953Z,75.48
2019-03-02T00:06:48.555Z,74.62
2019-03-02T00:07:29.164Z,74.71
2019-03-02T00:08:09.755Z,75.48
2019-03-02T00:08:50.361Z,75.48
2019-03-02T00:09:31.783Z,75.1
2019-03-02T00:10:11.535Z,75.48
2019-03-02T00:10:52.132Z,74.55
2019-03-02T00:11:32.719Z,74.81
2019-03-02T00:12:13.317Z,74.52
2019-03-02T00:12:53.919Z,74.62
2019-03-02T00:13:34.810Z,74.85
2019-03-02T00:14:15.673Z,74.62
2019-03-02T00:14:56.018Z,74.52
2019-03-02T00:15:36.625Z,75.38
2019-03-02T00:16:17.232Z,75.04
2019-03-02T00:16:58.004Z,75.38
2019-03-02T00:17:39.886Z,75.13
2019-03-02T00:18:20.488Z,75.38
2019-03-02T00:19:02.857Z,75.2
2019-03-02T00:19:41.970Z,75
2019-03-02T00:20:22.325Z,75.38
2019-03-02T00:21:02.901Z,75.38
2019-03-02T00:21:43.488Z,75.38
2019-03-02T00:22:24.195Z,75
2019-03-02T00:23:04.789Z,74.81
2019-03-02T00:23:46.829Z,75.38
2019-03-02T00:24:27.711Z,75.1
2019-03-02T00:25:08.302Z,75.38
2019-03-02T00:25:48.906Z,75.1
2019-03-02T00:26:29.494Z,75.29
2019-03-02T00:27:10.114Z,74.81
2019-03-02T00:27:54.036Z,74.71
2019-03-02T00:28:32.654Z,75.48
2019-03-02T00:29:12.078Z,75
2019-03-02T00:29:52.772Z,74.9
2019-03-02T00:30:33.363Z,74.81
2019-03-02T00:31:13.951Z,74.81
2019-03-02T00:31:54.543Z,75.2
2019-03-02T00:32:35.137Z,75.38
2019-03-02T00:33:16.526Z,75.48
2019-03-02T00:33:56.595Z,75.1
2019-03-02T00:34:36.956Z,75.38
2019-03-02T00:35:17.600Z,75.2
2019-03-02T00:35:58.188Z,75.38
2019-03-02T00:36:38.816Z,75
2019-03-02T00:37:19.414Z,75.2
2019-03-02T00:38:00.041Z,75
2019-03-02T00:38:43.401Z,75.2
2019-03-02T00:39:21.220Z,75.29
2019-03-02T00:40:01.825Z,75.48
2019-03-02T00:40:42.420Z,74.81
2019-03-02T00:41:23.704Z,75.38
2019-03-02T00:42:04.309Z,74.71
2019-03-02T00:42:44.989Z,74.9
2019-03-02T00:43:27.011Z,75.29
2019-03-02T00:44:06.195Z,75
2019-03-02T00:44:46.788Z,74.81
2019-03-02T00:45:27.379Z,74.9
2019-03-02T00:46:07.969Z,74.71
2019-03-02T00:46:48.698Z,75.2
2019-03-02T00:47:31.715Z,75.2
2019-03-02T00:48:12.363Z,75.1
2019-03-02T00:48:51.749Z,75.38
2019-03-02T00:49:32.898Z,75.48
2019-03-02T00:50:13.611Z,75.2
2019-03-02T00:50:57.129Z,75.2
2019-03-02T00:51:37.895Z,74.71
2019-03-02T00:52:20.403Z,74.81
2019-03-02T00:53:00.104Z,74.52
2019-03-02T00:53:40.749Z,75.48
2019-03-02T00:54:21.714Z,75.38
2019-03-02T00:55:02.351Z,75.48
2019-03-02T00:55:42.956Z,75.29
2019-03-02T00:56:23.536Z,74.71
2019-03-02T00:57:04.587Z,75.48
2019-03-02T00:57:47.140Z,75.48
2019-03-02T00:58:28.937Z,75.38
2019-03-02T00:59:08.331Z,75.38
2019-03-02T00:59:50.359Z,75.48
2019-03-02T01:00:38.608Z,74.52
2019-03-02T01:01:19.202Z,74.62
2019-03-02T01:02:00.671Z,74.52
2019-03-02T01:02:40.474Z,74.52
2019-03-02T01:03:21.043Z,74.52
2019-03-02T01:04:01.655Z,74.52
2019-03-02T01:04:42.256Z,74.62
2019-03-02T01:05:22.837Z,75.2
2019-03-02T01:06:03.429Z,74.52
2019-03-02T01:06:44.943Z,74.52
2019-03-02T01:07:24.621Z,74.62
2019-03-02T01:08:05.197Z,74.62
2019-03-02T01:08:45.789Z,74.81
2019-03-02T01:09:26.385Z,74.71
2019-03-02T01:10:06.975Z,74.71
2019-03-02T01:10:47.569Z,74.43
2019-03-02T01:11:29.423Z,74.62
2019-03-02T01:12:09.099Z,74.71
2019-03-02T01:12:49.335Z,74.71
2019-03-02T01:13:29.995Z,74.81
2019-03-02T01:14:10.590Z,74.71
2019-03-02T01:14:51.182Z,74.71
2019-03-02T01:15:31.832Z,74.62
2019-03-02T01:16:12.421Z,74.71
2019-03-02T01:16:55.100Z,74.52
2019-03-02T01:17:33.595Z,74.23
2019-03-02T01:18:14.241Z,74.52
2019-03-02T01:18:54.827Z,74.62
2019-03-02T01:19:35.415Z,74.71
2019-03-02T01:20:16.025Z,74.71
2019-03-02T01:20:56.629Z,74.23
2019-03-02T01:21:37.436Z,74.62
2019-03-02T01:22:17.830Z,74.43
2019-03-02T01:22:58.419Z,74.43
2019-03-02T01:23:39.005Z,74.13
2019-03-02T01:24:19.601Z,74.13
2019-03-02T01:25:00.245Z,74.43
2019-03-02T01:25:40.797Z,74.43
2019-03-02T01:26:23.803Z,74.13
2019-03-02T01:27:01.983Z,74.62
2019-03-02T01:27:42.559Z,74.43
2019-03-02T01:28:23.149Z,74.62
2019-03-02T01:29:03.738Z,74.62
2019-03-02T01:29:44.329Z,74.62
2019-03-02T01:30:26.590Z,74.62
2019-03-02T01:31:06.067Z,74.43
2019-03-02T01:31:46.107Z,74.62
2019-03-02T01:32:26.699Z,74.52
2019-03-02T01:33:07.303Z,74.13
2019-03-02T01:33:47.905Z,74.52
2019-03-02T01:34:28.531Z,74.62
2019-03-02T01:35:09.118Z,74.62
2019-03-02T01:35:49.719Z,74.43
2019-03-02T01:36:32.204Z,74.33
2019-03-02T01:37:10.905Z,74.62
2019-03-02T01:37:51.503Z,74.23
2019-03-02T01:38:32.122Z,74.71
2019-03-02T01:39:12.705Z,74.52
2019-03-02T01:39:53.303Z,74.52
2019-03-02T01:40:33.883Z,74.43
2019-03-02T01:41:17.656Z,74.43
2019-03-02T01:41:55.073Z,74.33
2019-03-02T01:42:35.661Z,74.43
2019-03-02T01:43:16.250Z,74.43
2019-03-02T01:43:56.839Z,74.52
2019-03-02T01:44:37.427Z,74.52
2019-03-02T01:45:18.035Z,74.43
2019-03-02T01:45:59.699Z,74.43
2019-03-02T01:46:40.838Z,74.52
2019-03-02T01:47:19.817Z,74.43
2019-03-02T01:48:00.430Z,74.23
2019-03-02T01:48:41.035Z,74.33
2019-03-02T01:49:21.615Z,74.23
2019-03-02T01:50:02.205Z,74.62
2019-03-02T01:50:43.752Z,74.52
2019-03-02T01:51:23.905Z,74.43
2019-03-02T01:52:03.989Z,74.71
2019-03-02T01:52:44.593Z,74.62
2019-03-02T01:53:25.189Z,74.62
2019-03-02T01:54:05.782Z,74.62
2019-03-02T01:54:46.377Z,74.62
2019-03-02T01:55:27.721Z,74.62
2019-03-02T01:56:07.557Z,74.71
2019-03-02T01:56:48.146Z,74.62
2019-03-02T01:57:28.763Z,74.52
2019-03-02T01:58:09.363Z,74.62
2019-03-02T01:58:49.957Z,74.52
2019-03-02T01:59:30.565Z,74.23
2019-03-02T02:00:13.746Z,74.52
2019-03-02T02:00:51.775Z,74.43
2019-03-02T02:01:32.434Z,74.43
2019-03-02T02:02:13.021Z,74.71
2019-03-02T02:02:53.631Z,74.23
2019-03-02T02:03:34.219Z,74.23
2019-03-02T02:04:14.813Z,74.62
2019-03-02T02:04:57.433Z,74.52
2019-03-02T02:05:36.014Z,74.62
2019-03-02T02:06:16.595Z,74.04
2019-03-02T02:06:57.197Z,74.43
2019-03-02T02:07:37.819Z,74.43
2019-03-02T02:08:18.425Z,74.62
2019-03-02T02:09:01.631Z,74.13
2019-03-02T02:09:40.509Z,74.43
2019-03-02T02:10:22.027Z,74.43
2019-03-02T02:11:02.621Z,74.23
2019-03-02T02:11:43.211Z,74.71
2019-03-02T02:12:25.391Z,74.43
2019-03-02T02:13:06.117Z,74.33
2019-03-02T02:13:44.989Z,74.33
2019-03-02T02:14:25.592Z,74.43
2019-03-02T02:15:06.193Z,74.23
2019-03-02T02:15:46.788Z,74.23
2019-03-02T02:16:27.399Z,74.13
2019-03-02T02:17:07.985Z,74.23
2019-03-02T02:17:49.506Z,74.13
2019-03-02T02:18:29.156Z,74.33
2019-03-02T02:19:09.750Z,74.33
2019-03-02T02:19:50.349Z,74.13
2019-03-02T02:20:30.939Z,74.23
2019-03-02T02:21:11.533Z,74.52
2019-03-02T02:21:52.151Z,74.43
2019-03-02T02:22:34.649Z,73.94
2019-03-02T02:23:14.133Z,74.52
2019-03-02T02:23:53.908Z,73.85
2019-03-02T02:24:34.493Z,74.62
2019-03-02T02:25:15.067Z,74.62
2019-03-02T02:25:55.673Z,73.94
2019-03-02T02:26:36.267Z,74.43
2019-03-02T02:27:18.743Z,74.62
2019-03-02T02:27:57.797Z,73.94
2019-03-02T02:28:38.037Z,74.62
2019-03-02T02:29:18.658Z,74.43
2019-03-02T02:29:59.271Z,74.43
2019-03-02T02:30:39.862Z,74.33
2019-03-02T02:31:20.451Z,74.04
2019-03-02T02:32:01.045Z,73.94
2019-03-02T02:32:41.648Z,74.52
2019-03-02T02:33:22.287Z,74.04
2019-03-02T02:34:02.935Z,73.94
2019-03-02T02:34:43.527Z,73.94
2019-03-02T02:35:24.118Z,74.04
2019-03-02T02:36:04.731Z,73.56
2019-03-02T02:36:45.319Z,73.94
2019-03-02T02:37:25.907Z,73.85
2019-03-02T02:38:11.051Z,74.04
2019-03-02T02:38:53.551Z,73.94
2019-03-02T02:39:28.833Z,73.94
2019-03-02T02:40:12.440Z,74.04
2019-03-02T02:40:48.892Z,73.94
2019-03-02T02:41:29.491Z,73.94
2019-03-02T02:42:10.099Z,74.04
2019-03-02T02:42:50.727Z,74.04
2019-03-02T02:43:31.283Z,74.04
2019-03-02T02:44:11.858Z,74.04
2019-03-02T02:44:52.463Z,73.94
2019-03-02T02:45:33.051Z,73.66
2019-03-02T02:46:13.661Z,73.94
2019-03-02T02:46:54.263Z,73.75
2019-03-02T02:47:34.888Z,73.75
2019-03-02T02:48:15.477Z,73.75
2019-03-02T02:48:56.087Z,73.94
2019-03-02T02:49:36.712Z,73.94
2019-03-02T02:50:17.292Z,73.85
2019-03-02T02:50:57.924Z,73.75
2019-03-02T02:51:38.488Z,73.94
2019-03-02T02:52:27.449Z,73.94
2019-03-02T02:53:05.828Z,73.94
2019-03-02T02:53:44.887Z,73.94
2019-03-02T02:54:23.223Z,73.94
2019-03-02T02:55:02.173Z,73.75
2019-03-02T02:55:42.267Z,73.75
2019-03-02T02:56:22.645Z,73.94
2019-03-02T02:57:03.243Z,73.75
2019-03-02T02:57:43.849Z,73.75
2019-03-02T02:58:24.447Z,73.94
2019-03-02T02:59:05.040Z,74.1
2019-03-02T02:59:45.635Z,74.13
2019-03-02T03:00:26.219Z,73.37
2019-03-02T03:01:06.818Z,73.27
2019-03-02T03:01:47.410Z,73.37
2019-03-02T03:02:28.002Z,73.37
2019-03-02T03:03:08.581Z,73.56
2019-03-02T03:03:49.168Z,73.37
2019-03-02T03:04:32.433Z,73.37
2019-03-02T03:05:15.088Z,73.56
2019-03-02T03:05:53.922Z,73.56
2019-03-02T03:06:32.517Z,73.37
2019-03-02T03:07:13.811Z,73.37
2019-03-02T03:07:55.318Z,73.75
2019-03-02T03:08:33.377Z,73.75
2019-03-02T03:09:13.973Z,73.37
2019-03-02T03:09:54.565Z,73.94
2019-03-02T03:10:35.149Z,73.27
2019-03-02T03:11:15.733Z,73.37
2019-03-02T03:11:56.315Z,73.18
2019-03-02T03:12:36.906Z,73.56
2019-03-02T03:13:17.495Z,73.18
2019-03-02T03:13:58.113Z,73.56
2019-03-02T03:14:38.701Z,73.66
2019-03-02T03:15:19.286Z,73.56
2019-03-02T03:15:59.883Z,73.37
2019-03-02T03:16:40.478Z,73.27
2019-03-02T03:17:21.067Z,73.43
2019-03-02T03:18:01.652Z,73.27
2019-03-02T03:18:42.247Z,73.37
2019-03-02T03:19:25.985Z,73.52
2019-03-02T03:20:05.415Z,73.75
2019-03-02T03:20:48.563Z,73.56
2019-03-02T03:21:27.705Z,73.75
2019-03-02T03:22:07.166Z,73.66
2019-03-02T03:22:47.378Z,73.66
2019-03-02T03:23:26.579Z,73.56
2019-03-02T03:24:07.010Z,73.56
2019-03-02T03:24:47.601Z,73.75
2019-03-02T03:25:28.199Z,73.37
2019-03-02T03:26:08.788Z,73.66
2019-03-02T03:26:49.370Z,73.56
2019-03-02T03:27:29.967Z,73.75
2019-03-02T03:28:10.569Z,73.75
2019-03-02T03:28:51.163Z,73.27
2019-03-02T03:29:31.757Z,73.46
2019-03-02T03:30:12.334Z,73.75
2019-03-02T03:30:52.922Z,73.46
2019-03-02T03:31:33.518Z,73.43
2019-03-02T03:32:14.117Z,73.46
2019-03-02T03:32:58.372Z,73.66
2019-03-02T03:33:43.161Z,73.75
2019-03-02T03:34:28.282Z,73.56
2019-03-02T03:34:56.512Z,73.46
2019-03-02T03:35:37.111Z,73.56
2019-03-02T03:36:17.699Z,73.66
2019-03-02T03:36:58.288Z,73.18
2019-03-02T03:37:38.880Z,73.46
2019-03-02T03:38:19.473Z,73.33
2019-03-02T03:39:02.599Z,73.37
2019-03-02T03:39:41.711Z,73.18
2019-03-02T03:40:25.246Z,73.27
2019-03-02T03:41:05.180Z,73.18
2019-03-02T03:41:43.378Z,73.46
2019-03-02T03:42:24.639Z,73.46
2019-03-02T03:43:04.800Z,73.18
2019-03-02T03:43:44.501Z,73.46
2019-03-02T03:44:27.299Z,73.27
2019-03-02T03:45:05.840Z,73.27
2019-03-02T03:45:46.015Z,73.27
2019-03-02T03:46:26.602Z,73.37
2019-03-02T03:47:07.194Z,73.37
2019-03-02T03:47:47.795Z,73.37
2019-03-02T03:48:28.380Z,72.79
2019-03-02T03:49:08.961Z,72.79
2019-03-02T03:49:49.552Z,72.89
2019-03-02T03:50:30.166Z,72.99
2019-03-02T03:51:10.749Z,72.89
2019-03-02T03:51:51.349Z,73.27
2019-03-02T03:52:31.945Z,72.89
2019-03-02T03:53:12.535Z,72.89
2019-03-02T03:53:53.122Z,72.89
2019-03-02T03:54:33.712Z,72.69
2019-03-02T03:55:23.639Z,72.89
2019-03-02T03:56:03.181Z,72.89
2019-03-02T03:56:37.583Z,72.69
2019-03-02T03:57:16.992Z,72.89
2019-03-02T03:58:00.326Z,73.46
2019-03-02T03:58:39.774Z,72.89
2019-03-02T03:59:18.938Z,72.99
2019-03-02T04:00:00.194Z,73.37
2019-03-02T04:00:40.338Z,73.27
2019-03-02T04:01:19.664Z,73.27
2019-03-02T04:02:00.296Z,73.08
2019-03-02T04:02:40.897Z,72.99
2019-03-02T04:03:21.487Z,73.18
2019-03-02T04:04:02.081Z,73.14
2019-03-02T04:04:42.678Z,73.33
2019-03-02T04:05:23.273Z,73.27
2019-03-02T04:06:03.868Z,73.18
2019-03-02T04:06:44.468Z,72.99
2019-03-02T04:07:25.068Z,73.18
2019-03-02T04:08:05.653Z,73.18
2019-03-02T04:08:46.236Z,73.37
2019-03-02T04:09:26.833Z,72.99
2019-03-02T04:10:07.434Z,73.27
2019-03-02T04:10:48.009Z,72.99
2019-03-02T04:11:28.615Z,72.99
2019-03-02T04:12:09.206Z,73.27
2019-03-02T04:12:49.779Z,72.99
2019-03-02T04:13:30.420Z,73.18
2019-03-02T04:14:11.014Z,73.04
2019-03-02T04:14:51.602Z,73.18
2019-03-02T04:15:40.577Z,72.95
2019-03-02T04:16:16.088Z,73.18
2019-03-02T04:16:55.568Z,72.89
2019-03-02T04:17:38.706Z,73.08
2019-03-02T04:18:16.300Z,72.99
2019-03-02T04:18:57.737Z,73.08
2019-03-02T04:19:36.159Z,73.08
2019-03-02T04:20:16.363Z,72.79
2019-03-02T04:20:56.954Z,72.89
2019-03-02T04:21:37.547Z,72.41
2019-03-02T04:22:18.140Z,72.89
2019-03-02T04:22:58.720Z,72.41
2019-03-02T04:23:39.308Z,72.89
2019-03-02T04:24:19.914Z,72.75
2019-03-02T04:25:00.510Z,72.69
2019-03-02T04:25:41.100Z,72.89
2019-03-02T04:26:21.706Z,72.5
2019-03-02T04:27:02.302Z,72.5
2019-03-02T04:27:42.894Z,72.69
2019-03-02T04:28:27.556Z,72.79
2019-03-02T04:29:08.683Z,73.04
2019-03-02T04:29:49.750Z,72.89
2019-03-02T04:30:30.257Z,72.69
2019-03-02T04:31:08.995Z,72.85
2019-03-02T04:31:48.426Z,72.89
2019-03-02T04:32:27.692Z,72.66
2019-03-02T04:33:07.774Z,72.66
2019-03-02T04:33:48.233Z,72.99
2019-03-02T04:34:28.841Z,72.75
2019-03-02T04:35:09.425Z,73.08
2019-03-02T04:35:50.024Z,72.79
2019-03-02T04:36:30.603Z,72.66
2019-03-02T04:37:11.226Z,72.69
2019-03-02T04:37:51.806Z,72.79
2019-03-02T04:38:33.522Z,72.79
2019-03-02T04:39:13.567Z,72.6
2019-03-02T04:39:53.625Z,72.6
2019-03-02T04:40:34.203Z,73.08
2019-03-02T04:41:14.787Z,72.89
2019-03-02T04:41:55.385Z,73.18
2019-03-02T04:42:35.976Z,72.95
2019-03-02T04:43:16.551Z,72.75
2019-03-02T04:43:57.139Z,72.75
2019-03-02T04:44:37.727Z,72.75
2019-03-02T04:45:18.325Z,73.04
2019-03-02T04:45:58.948Z,72.89
2019-03-02T04:46:39.532Z,72.89
2019-03-02T04:47:22.426Z,72.89
2019-03-02T04:48:03.235Z,72.85
2019-03-02T04:48:41.352Z,72.79
2019-03-02T04:49:21.951Z,73.04
2019-03-02T04:50:02.557Z,72.85
2019-03-02T04:50:43.149Z,72.75
2019-03-02T04:51:23.737Z,72.95
2019-03-02T04:52:04.331Z,72.47
2019-03-02T04:52:46.537Z,72.47
2019-03-02T04:53:25.942Z,72.08
2019-03-02T04:54:06.085Z,72.79
2019-03-02T04:54:46.663Z,72.5
2019-03-02T04:55:27.257Z,72.69
2019-03-02T04:56:07.849Z,72.56
2019-03-02T04:56:48.448Z,72.6
2019-03-02T04:57:29.298Z,72.37
2019-03-02T04:58:11.889Z,72.47
2019-03-02T04:58:50.193Z,72.95
2019-03-02T04:59:30.806Z,72.95
2019-03-02T05:00:11.396Z,72.89
2019-03-02T05:00:51.981Z,72.85
2019-03-02T05:01:32.575Z,72.95
2019-03-02T05:02:13.165Z,72.47
2019-03-02T05:02:55.121Z,72.28
2019-03-02T05:03:34.361Z,72.02
2019-03-02T05:04:14.947Z,72.08
2019-03-02T05:04:55.544Z,72.28
2019-03-02T05:05:36.133Z,72.37
2019-03-02T05:06:18.882Z,72.28
2019-03-02T05:06:57.297Z,72.28
2019-03-02T05:07:37.881Z,72.28
2019-03-02T05:08:18.481Z,72.37
2019-03-02T05:08:59.102Z,72.69
2019-03-02T05:09:39.700Z,72.47
2019-03-02T05:10:20.321Z,72.56
2019-03-02T05:11:03.543Z,72.66
2019-03-02T05:11:41.503Z,72.69
2019-03-02T05:12:22.079Z,72.56
2019-03-02T05:13:02.678Z,72.56
2019-03-02T05:13:43.275Z,72.28
2019-03-02T05:14:23.872Z,72.5
2019-03-02T05:15:04.464Z,72.56
2019-03-02T05:15:45.064Z,72.28
2019-03-02T05:16:28.802Z,72.28
2019-03-02T05:17:07.219Z,72.6
2019-03-02T05:17:46.833Z,72.66
2019-03-02T05:18:27.421Z,72.28
2019-03-02T05:19:08.054Z,72.75
2019-03-02T05:19:48.685Z,71.98
2019-03-02T05:20:29.241Z,72.22
2019-03-02T05:21:10.381Z,72.08
2019-03-02T05:21:50.408Z,72.08
2019-03-02T05:22:30.993Z,72.31
2019-03-02T05:23:11.584Z,72.08
2019-03-02T05:23:52.168Z,72.08
2019-03-02T05:24:32.758Z,71.98
2019-03-02T05:25:15.593Z,72.85
2019-03-02T05:25:54.548Z,71.98
2019-03-02T05:26:34.580Z,72.18
2019-03-02T05:27:15.181Z,72.66
2019-03-02T05:27:55.783Z,72.47
2019-03-02T05:28:39.554Z,72.28
2019-03-02T05:29:17.667Z,72.56
2019-03-02T05:29:57.604Z,72.75
2019-03-02T05:30:38.202Z,72.69
2019-03-02T05:31:18.781Z,72.69
2019-03-02T05:31:59.376Z,71.98
2019-03-02T05:32:39.967Z,72.56
2019-03-02T05:33:24.164Z,72.56
2019-03-02T05:34:04.441Z,72.28
2019-03-02T05:34:41.722Z,72.37
2019-03-02T05:35:22.304Z,72.28
2019-03-02T05:36:02.890Z,71.98
2019-03-02T05:36:43.474Z,72.18
2019-03-02T05:37:24.070Z,72.28
2019-03-02T05:38:04.647Z,72.47
2019-03-02T05:38:45.243Z,72.18
2019-03-02T05:39:25.842Z,72.28
2019-03-02T05:40:06.434Z,72.28
2019-03-02T05:40:47.040Z,71.98
2019-03-02T05:41:27.625Z,71.98
2019-03-02T05:42:10.287Z,72.31
2019-03-02T05:42:51.603Z,72.28
2019-03-02T05:43:29.401Z,72.37
2019-03-02T05:44:09.992Z,72.28
2019-03-02T05:44:50.583Z,71.98
2019-03-02T05:45:31.180Z,71.98
2019-03-02T05:46:11.761Z,72.47
2019-03-02T05:46:52.354Z,72.22
2019-03-02T05:47:32.948Z,72.37
2019-03-02T05:48:13.541Z,72.28
2019-03-02T05:48:54.130Z,72.28
2019-03-02T05:49:34.712Z,72.37
2019-03-02T05:50:15.319Z,72.18
2019-03-02T05:50:55.900Z,72.37
2019-03-02T05:51:38.802Z,72.56
2019-03-02T05:52:17.752Z,72.18
2019-03-02T05:52:57.683Z,72.31
2019-03-02T05:53:38.268Z,72.37
2019-03-02T05:54:18.876Z,72.37
2019-03-02T05:54:59.467Z,72.18
2019-03-02T05:55:40.043Z,72.47
2019-03-02T05:56:20.640Z,72.56
2019-03-02T05:57:04.046Z,72.56
2019-03-02T05:57:41.834Z,72.66
2019-03-02T05:58:22.422Z,72.37
2019-03-02T05:59:03.008Z,72.37
2019-03-02T05:59:43.590Z,72.47
2019-03-02T06:00:24.176Z,72.47
2019-03-02T06:01:04.766Z,72.37
2019-03-02T06:01:45.362Z,72.56
2019-03-02T06:02:25.950Z,72.08
2019-03-02T06:03:06.536Z,72.56
2019-03-02T06:03:47.114Z,71.89
2019-03-02T06:04:27.704Z,72.08
2019-03-02T06:05:08.288Z,71.8
2019-03-02T06:05:48.888Z,72.66
2019-03-02T06:06:29.474Z,72.47
2019-03-02T06:07:10.068Z,72.56
2019-03-02T06:07:53.755Z,72.47
2019-03-02T06:08:32.074Z,71.89
2019-03-02T06:09:13.704Z,71.98
2019-03-02T06:09:52.475Z,72.08
2019-03-02T06:10:33.058Z,71.89
2019-03-02T06:11:13.648Z,72.47
2019-03-02T06:11:54.242Z,71.89
2019-03-02T06:12:34.842Z,71.89
2019-03-02T06:13:15.450Z,72.08
2019-03-02T06:13:56.050Z,72.37
2019-03-02T06:14:36.644Z,71.89
2019-03-02T06:15:17.254Z,71.89
2019-03-02T06:15:57.866Z,71.51
2019-03-02T06:16:38.486Z,71.41
2019-03-02T06:17:19.078Z,71.8
2019-03-02T06:17:59.738Z,71.98
2019-03-02T06:18:42.487Z,71.8
2019-03-02T06:19:23.310Z,71.98
2019-03-02T06:20:01.539Z,71.89
2019-03-02T06:20:42.126Z,72.18
2019-03-02T06:21:22.726Z,71.7
2019-03-02T06:22:03.321Z,71.8
2019-03-02T06:22:43.899Z,71.98
2019-03-02T06:23:26.565Z,71.7
2019-03-02T06:24:05.540Z,71.89
2019-03-02T06:24:45.676Z,72.02
2019-03-02T06:25:26.261Z,72.18
2019-03-02T06:26:06.843Z,71.61
2019-03-02T06:26:47.428Z,71.7
2019-03-02T06:27:28.016Z,71.89
2019-03-02T06:28:08.613Z,71.8
2019-03-02T06:28:49.214Z,71.7
2019-03-02T06:29:32.720Z,72.31
2019-03-02T06:30:10.406Z,72.28
2019-03-02T06:30:51.012Z,71.98
2019-03-02T06:31:31.640Z,72.18
2019-03-02T06:32:12.216Z,72.12
2019-03-02T06:32:52.806Z,71.51
2019-03-02T06:33:33.389Z,72.28
2019-03-02T06:34:16.647Z,71.98
2019-03-02T06:34:55.752Z,71.7
2019-03-02T06:35:35.148Z,71.98
2019-03-02T06:36:15.738Z,71.98
2019-03-02T06:36:56.338Z,71.98
2019-03-02T06:37:36.932Z,71.98
2019-03-02T06:38:18.229Z,71.41
2019-03-02T06:38:58.102Z,71.98
2019-03-02T06:39:40.925Z,71.73
2019-03-02T06:40:21.380Z,71.89
2019-03-02T06:40:59.874Z,71.41
2019-03-02T06:41:40.474Z,71.8
2019-03-02T06:42:21.074Z,71.7
2019-03-02T06:43:01.669Z,71.61
2019-03-02T06:43:42.254Z,71.8
2019-03-02T06:44:22.864Z,71.61
2019-03-02T06:45:05.594Z,71.73
2019-03-02T06:45:44.388Z,71.61
2019-03-02T06:46:24.736Z,71.31
2019-03-02T06:47:05.786Z,71.25
2019-03-02T06:47:45.934Z,71.45
2019-03-02T06:48:26.523Z,71.64
2019-03-02T06:49:07.605Z,71.35
2019-03-02T06:49:47.714Z,71.51
2019-03-02T06:50:31.684Z,71.22
2019-03-02T06:51:11.198Z,71.45
2019-03-02T06:51:49.528Z,71.8
2019-03-02T06:52:30.116Z,71.61
2019-03-02T06:53:10.720Z,71.64
2019-03-02T06:53:51.332Z,71.7
2019-03-02T06:54:31.916Z,71.35
2019-03-02T06:55:12.496Z,71.41
2019-03-02T06:55:53.090Z,71.7
2019-03-02T06:56:35.871Z,71.41
2019-03-02T06:57:15.029Z,71.31
2019-03-02T06:57:54.902Z,71.22
2019-03-02T06:58:35.488Z,71.22
2019-03-02T06:59:16.070Z,71.55
2019-03-02T06:59:56.774Z,71.73
2019-03-02T07:00:37.873Z,71.7
2019-03-02T07:01:20.729Z,71.51
2019-03-02T07:01:59.648Z,71.25
2019-03-02T07:02:40.502Z,71.64
2019-03-02T07:03:21.144Z,71.73
2019-03-02T07:04:01.753Z,71.55
2019-03-02T07:04:42.350Z,71.35
2019-03-02T07:05:22.944Z,71.55
2019-03-02T07:06:03.532Z,71.45
2019-03-02T07:06:46.848Z,71.16
2019-03-02T07:07:24.724Z,71.25
2019-03-02T07:08:05.314Z,71.35
2019-03-02T07:08:45.903Z,71.45
2019-03-02T07:09:26.506Z,71.55
2019-03-02T07:10:07.092Z,71.16
2019-03-02T07:10:47.708Z,71.25
2019-03-02T07:11:29.780Z,70.97
2019-03-02T07:12:09.413Z,71.06
2019-03-02T07:12:49.478Z,71.16
2019-03-02T07:13:30.103Z,71.64
2019-03-02T07:14:10.696Z,71.06
2019-03-02T07:14:51.868Z,71.25
2019-03-02T07:15:32.180Z,71.35
2019-03-02T07:16:12.758Z,71.06
2019-03-02T07:16:55.866Z,71.45
2019-03-02T07:17:33.947Z,71.45
2019-03-02T07:18:14.539Z,71.45
2019-03-02T07:18:55.136Z,71.25
2019-03-02T07:19:35.720Z,70.97
2019-03-02T07:20:16.355Z,71.35
2019-03-02T07:20:59.496Z,71.25
2019-03-02T07:21:41.180Z,71.25
2019-03-02T07:22:18.128Z,70.78
2019-03-02T07:22:58.764Z,70.78
2019-03-02T07:23:39.362Z,70.58
2019-03-02T07:24:19.955Z,70.49
2019-03-02T07:25:01.339Z,70.49
2019-03-02T07:25:44.100Z,70.68
2019-03-02T07:26:21.753Z,70.78
2019-03-02T07:27:02.376Z,70.87
2019-03-02T07:27:43.026Z,70.49
2019-03-02T07:28:23.632Z,70.58
2019-03-02T07:29:04.217Z,70.68
2019-03-02T07:29:44.808Z,70.49
2019-03-02T07:30:25.566Z,70.49
2019-03-02T07:31:06.324Z,70.49
2019-03-02T07:31:46.936Z,70.58
2019-03-02T07:32:27.514Z,70.49
2019-03-02T07:33:08.120Z,70.49
2019-03-02T07:33:48.714Z,70.1
2019-03-02T07:34:29.306Z,70.1
2019-03-02T07:35:09.899Z,70.2
2019-03-02T07:35:51.626Z,70.49
2019-03-02T07:36:33.926Z,70.49
2019-03-02T07:37:12.158Z,70.68
2019-03-02T07:37:52.742Z,70.78
2019-03-02T07:38:33.332Z,70.58
2019-03-02T07:39:13.925Z,70.68
2019-03-02T07:39:54.507Z,70.29
2019-03-02T07:40:35.093Z,70.39
2019-03-02T07:41:18.693Z,69.72
2019-03-02T07:41:57.856Z,69.81
2019-03-02T07:42:36.885Z,70.1
2019-03-02T07:43:17.477Z,69.91
2019-03-02T07:43:59.721Z,70.1
2019-03-02T07:44:38.706Z,70.2
2019-03-02T07:45:19.338Z,70.49
2019-03-02T07:45:59.934Z,70.39
2019-03-02T07:46:44.019Z,70.2
2019-03-02T07:47:23.981Z,69.81
2019-03-02T07:48:01.773Z,69.81
2019-03-02T07:48:42.410Z,70.39
2019-03-02T07:49:23.006Z,69.91
2019-03-02T07:50:03.617Z,70.01
2019-03-02T07:50:44.203Z,69.81
2019-03-02T07:51:24.789Z,70.58
2019-03-02T07:52:05.419Z,69.62
2019-03-02T07:52:49.594Z,69.91
2019-03-02T07:53:28.946Z,69.81
2019-03-02T07:54:07.421Z,69.62
2019-03-02T07:54:56.199Z,70.01
2019-03-02T07:55:28.532Z,70.29
2019-03-02T07:56:09.158Z,70.01
2019-03-02T07:56:49.738Z,69.81
2019-03-02T07:57:30.350Z,70.01
2019-03-02T07:58:12.826Z,69.87
2019-03-02T07:58:51.804Z,69.81
2019-03-02T07:59:32.232Z,69.62
2019-03-02T08:00:12.908Z,70.1
2019-03-02T08:00:53.486Z,70.01
2019-03-02T08:01:34.076Z,69.91
2019-03-02T08:02:14.857Z,70.1
2019-03-02T08:02:56.193Z,70.01
2019-03-02T08:03:36.047Z,69.91
2019-03-02T08:04:16.785Z,70.1
2019-03-02T08:04:57.258Z,70.01
2019-03-02T08:05:37.858Z,69.72
2019-03-02T08:06:21.838Z,69.91
2019-03-02T08:07:01.403Z,69.91
2019-03-02T08:07:39.738Z,70.29
2019-03-02T08:08:20.327Z,70.39
2019-03-02T08:09:00.923Z,70.01
2019-03-02T08:09:41.524Z,69.91
2019-03-02T08:10:22.120Z,69.81
2019-03-02T08:11:02.711Z,70.39
2019-03-02T08:11:45.452Z,69.81
2019-03-02T08:12:24.718Z,69.81
2019-03-02T08:13:04.486Z,69.91
2019-03-02T08:13:45.085Z,70.49
2019-03-02T08:14:25.712Z,70.39
2019-03-02T08:15:06.295Z,69.91
2019-03-02T08:15:46.879Z,70.49
2019-03-02T08:16:27.483Z,70.49
2019-03-02T08:17:09.737Z,70.78
2019-03-02T08:17:48.983Z,70.39
2019-03-02T08:18:29.378Z,70.58
2019-03-02T08:19:09.852Z,70.78
2019-03-02T08:19:50.448Z,70.39
2019-03-02T08:20:31.049Z,70.01
2019-03-02T08:21:11.644Z,70.29
2019-03-02T08:21:52.230Z,70.49
2019-03-02T08:22:32.819Z,70.01
2019-03-02T08:23:13.413Z,69.81
2019-03-02T08:23:53.993Z,70.1
2019-03-02T08:24:34.590Z,70.01
2019-03-02T08:25:15.195Z,70.29
2019-03-02T08:25:55.793Z,70.1
2019-03-02T08:26:36.379Z,70.01
2019-03-02T08:27:16.965Z,70.29
2019-03-02T08:27:57.573Z,70.1
2019-03-02T08:28:38.155Z,70.01
2019-03-02T08:29:20.926Z,69.81
2019-03-02T08:29:59.404Z,69.91
2019-03-02T08:30:40.067Z,69.72
2019-03-02T08:31:20.641Z,69.81
2019-03-02T08:32:01.241Z,69.72
2019-03-02T08:32:41.835Z,69.91
2019-03-02T08:33:22.426Z,70.29
2019-03-02T08:34:05.820Z,69.81
2019-03-02T08:34:46.312Z,69.81
2019-03-02T08:35:24.258Z,70.01
2019-03-02T08:36:04.847Z,69.91
2019-03-02T08:36:45.482Z,70.29
2019-03-02T08:37:26.619Z,70.1
2019-03-02T08:38:06.751Z,69.91
2019-03-02T08:38:47.347Z,70.01
2019-03-02T08:39:27.933Z,70.01
2019-03-02T08:40:08.518Z,69.81
2019-03-02T08:40:49.110Z,69.81
2019-03-02T08:41:32.800Z,70.01
2019-03-02T08:42:12.090Z,69.81
2019-03-02T08:42:50.900Z,69.91
2019-03-02T08:43:31.494Z,69.62
2019-03-02T08:44:12.119Z,70.49
2019-03-02T08:44:53.930Z,70.29